Time;durP1;ratioP1;P1;durP2;ratioP2;P2;SDS_P1;SDS_P2;PMS_P1;PMS_P2;Temp;Humidity;BMP_temperature;BMP_pressure;BME280_temperature;BME280_humidity;BME280_pressure;Samples;Min_cycle;Max_cycle;Signal;HPM_P1;HPM_P2
2023/06/28 00:02:10;;;;;;;1.60;0.90;;;;;;;;;;5012196;28;20235;-79
2023/06/28 00:04:36;;;;;;;4.30;0.47;;;;;;;;;;5012259;28;20171;-79
2023/06/28 00:07:02;;;;;;;4.53;0.60;;;;;;;;;;5011822;28;20474;-80
2023/06/28 00:09:28;;;;;;;3.07;0.60;;;;;;;;;;5012089;28;21002;-80
2023/06/28 00:11:54;;;;;;;5.23;0.37;;;;;;;;;;5011815;28;20439;-78
2023/06/28 00:14:20;;;;;;;4.03;0.60;;;;;;;;;;5012206;28;20181;-79
2023/06/28 00:16:46;;;;;;;2.70;0.43;;;;;;;;;;5012047;28;20685;-78
2023/06/28 00:19:11;;;;;;;6.03;0.70;;;;;;;;;;5012112;28;20174;-78
2023/06/28 00:21:37;;;;;;;2.10;0.90;;;;;;;;;;5011801;28;20229;-81
2023/06/28 00:24:03;;;;;;;2.20;1.37;;;;;;;;;;5012088;28;20222;-78
2023/06/28 00:26:29;;;;;;;2.67;0.93;;;;;;;;;;5011951;28;20502;-81
2023/06/28 00:28:55;;;;;;;3.77;0.80;;;;;;;;;;5012027;28;20400;-81
2023/06/28 00:31:21;;;;;;;4.57;0.60;;;;;;;;;;5012137;28;20212;-82
2023/06/28 00:33:47;;;;;;;4.80;1.17;;;;;;;;;;5012000;28;20549;-79
2023/06/28 00:36:13;;;;;;;2.27;0.50;;;;;;;;;;5010659;28;20548;-82
2023/06/28 00:38:39;;;;;;;4.23;1.07;;;;;;;;;;5011677;28;20489;-81
2023/06/28 00:41:05;;;;;;;2.53;0.60;;;;;;;;;;5011862;28;20946;-80
2023/06/28 00:43:31;;;;;;;3.03;2.30;;;;;;;;;;5010609;28;20188;-79
2023/06/28 00:45:57;;;;;;;2.50;0.90;;;;;;;;;;5011787;28;20413;-78
2023/06/28 00:48:23;;;;;;;4.60;0.90;;;;;;;;;;5011864;28;20197;-78
2023/06/28 00:50:49;;;;;;;2.50;0.70;;;;;;;;;;5010136;28;20787;-80
2023/06/28 00:53:16;;;;;;;3.60;0.47;;;;;;;;;;5011773;28;20417;-80
2023/06/28 00:55:42;;;;;;;2.70;0.50;;;;;;;;;;5011640;28;20518;-77
2023/06/28 00:58:09;;;;;;;3.13;0.70;;;;;;;;;;5011721;28;20925;-78
2023/06/28 01:00:35;;;;;;;5.77;0.63;;;;;;;;;;5011764;28;20932;-80
2023/06/28 01:03:01;;;;;;;3.80;0.70;;;;;;;;;;5011653;28;20419;-78
2023/06/28 01:05:27;;;;;;;4.90;0.70;;;;;;;;;;5011279;28;20169;-79
2023/06/28 01:07:54;;;;;;;2.50;0.83;;;;;;;;;;5011589;28;20415;-79
2023/06/28 01:10:20;;;;;;;3.60;1.03;;;;;;;;;;5011549;28;20469;-78
2023/06/28 01:12:46;;;;;;;4.03;0.80;;;;;;;;;;5011600;28;20420;-79
2023/06/28 01:15:12;;;;;;;5.17;0.70;;;;;;;;;;5011508;28;20426;-78
2023/06/28 01:17:38;;;;;;;5.33;1.27;;;;;;;;;;5010034;28;20487;-78
2023/06/28 01:20:05;;;;;;;3.63;0.80;;;;;;;;;;5011209;28;20412;-78
2023/06/28 01:22:32;;;;;;;2.40;0.83;;;;;;;;;;5011617;28;20177;-78
2023/06/28 01:24:58;;;;;;;4.63;1.43;;;;;;;;;;5013851;28;20413;-79
2023/06/28 01:27:24;;;;;;;3.03;0.77;;;;;;;;;;5015170;28;20413;-78
2023/06/28 01:29:56;;;;;;;2.00;0.50;;;;;;;;;;5015036;28;20545;-78
2023/06/28 01:32:22;;;;;;;3.23;0.80;;;;;;;;;;5014046;28;20764;-79
2023/06/28 01:34:47;;;;;;;4.20;0.93;;;;;;;;;;5014622;28;20920;-79
2023/06/28 01:37:14;;;;;;;3.73;0.60;;;;;;;;;;5014787;28;20484;-80
2023/06/28 01:39:40;;;;;;;3.03;0.60;;;;;;;;;;5015057;28;20471;-79
2023/06/28 01:42:06;;;;;;;3.80;0.70;;;;;;;;;;5014721;28;20427;-78
2023/06/28 01:44:32;;;;;;;3.23;0.80;;;;;;;;;;5014786;28;20438;-78
2023/06/28 01:46:58;;;;;;;4.50;0.83;;;;;;;;;;5014507;28;20968;-78
2023/06/28 01:49:25;;;;;;;1.50;0.57;;;;;;;;;;4994746;28;20513;-79
2023/06/28 01:51:52;;;;;;;2.23;0.43;;;;;;;;;;4995002;28;20418;-79
2023/06/28 01:54:18;;;;;;;1.90;0.57;;;;;;;;;;4995062;28;20919;-79
2023/06/28 01:56:44;;;;;;;3.33;0.80;;;;;;;;;;4994892;28;20484;-78
2023/06/28 01:59:10;;;;;;;3.07;0.60;;;;;;;;;;4994994;28;20403;-78
2023/06/28 02:01:36;;;;;;;5.13;1.07;;;;;;;;;;4994865;28;20181;-78
2023/06/28 02:04:02;;;;;;;1.77;0.60;;;;;;;;;;4994835;28;20416;-79
2023/06/28 02:06:28;;;;;;;3.17;0.60;;;;;;;;;;4994377;28;20176;-79
2023/06/28 02:08:54;;;;;;;3.77;0.77;;;;;;;;;;4994772;28;20472;-78
2023/06/28 02:11:20;;;;;;;2.10;0.60;;;;;;;;;;4994663;28;20414;-82
2023/06/28 02:13:46;;;;;;;4.57;1.63;;;;;;;;;;4994578;28;20492;-78
2023/06/28 02:16:13;;;;;;;3.87;1.00;;;;;;;;;;4994600;28;20232;-78
2023/06/28 02:18:39;;;;;;;3.00;0.40;;;;;;;;;;4994687;28;20486;-78
2023/06/28 02:21:05;;;;;;;6.40;0.53;;;;;;;;;;5010718;28;20413;-78
2023/06/28 02:23:31;;;;;;;1.90;0.80;;;;;;;;;;5013964;28;20929;-78
2023/06/28 02:25:57;;;;;;;2.97;0.93;;;;;;;;;;4996528;28;20913;-77
2023/06/28 02:28:23;;;;;;;4.40;1.03;;;;;;;;;;4994373;28;20468;-77
2023/06/28 02:30:48;;;;;;;3.03;0.97;;;;;;;;;;4994257;28;20256;-77
2023/06/28 02:33:14;;;;;;;1.77;0.93;;;;;;;;;;4992926;28;20631;-78
2023/06/28 02:35:40;;;;;;;1.90;0.40;;;;;;;;;;4993654;28;20504;-81
2023/06/28 02:38:06;;;;;;;2.93;0.47;;;;;;;;;;4995027;28;20480;-77
2023/06/28 02:40:32;;;;;;;3.60;0.90;;;;;;;;;;4995346;28;20408;-76
2023/06/28 02:42:58;;;;;;;1.43;0.40;;;;;;;;;;4995293;28;20463;-77
2023/06/28 02:45:24;;;;;;;4.77;0.67;;;;;;;;;;4995245;28;20411;-78
2023/06/28 02:47:50;;;;;;;3.03;0.97;;;;;;;;;;4995283;28;20176;-76
2023/06/28 02:50:16;;;;;;;3.70;0.60;;;;;;;;;;4993604;28;20181;-76
2023/06/28 02:52:41;;;;;;;4.40;0.60;;;;;;;;;;4995162;28;20224;-77
2023/06/28 02:55:08;;;;;;;2.80;0.60;;;;;;;;;;4995089;28;20426;-76
2023/06/28 02:57:36;;;;;;;2.13;1.13;;;;;;;;;;4994907;28;20506;-76
2023/06/28 03:00:02;;;;;;;3.63;0.67;;;;;;;;;;4995053;28;20444;-77
2023/06/28 03:02:28;;;;;;;4.67;1.50;;;;;;;;;;4994937;28;20808;-76
2023/06/28 03:04:54;;;;;;;4.90;1.37;;;;;;;;;;4994576;28;20440;-76
2023/06/28 03:07:20;;;;;;;3.70;1.10;;;;;;;;;;4994856;28;20601;-78
2023/06/28 03:09:46;;;;;;;4.17;1.83;;;;;;;;;;4994638;28;20230;-76
2023/06/28 03:12:12;;;;;;;7.67;2.00;;;;;;;;;;4994731;28;20177;-78
2023/06/28 03:14:38;;;;;;;3.90;1.30;;;;;;;;;;4994630;28;20191;-77
2023/06/28 03:17:05;;;;;;;6.05;2.03;;;;;;;;;;4993707;28;20449;-77
2023/06/28 03:19:31;;;;;;;7.23;1.90;;;;;;;;;;4994374;28;20176;-76
2023/06/28 03:21:57;;;;;;;5.50;2.60;;;;;;;;;;4994552;28;20411;-77
2023/06/28 03:24:22;;;;;;;5.80;1.67;;;;;;;;;;4994500;28;20638;-76
2023/06/28 03:26:48;;;;;;;6.80;1.87;;;;;;;;;;4994438;28;20186;-76
2023/06/28 03:29:15;;;;;;;7.93;2.17;;;;;;;;;;4994477;28;20177;-76
2023/06/28 03:31:41;;;;;;;4.57;2.03;;;;;;;;;;4994435;28;20409;-77
2023/06/28 03:34:06;;;;;;;7.37;2.90;;;;;;;;;;4993786;28;20562;-77
2023/06/28 03:36:34;;;;;;;6.93;2.80;;;;;;;;;;4994213;28;20467;-77
2023/06/28 03:39:00;;;;;;;6.30;2.23;;;;;;;;;;4994329;28;20406;-77
2023/06/28 03:41:27;;;;;;;4.00;2.30;;;;;;;;;;4994220;28;20420;-77
2023/06/28 03:43:53;;;;;;;5.03;2.20;;;;;;;;;;4994144;28;20212;-77
2023/06/28 03:46:19;;;;;;;7.53;3.23;;;;;;;;;;4993446;28;20452;-77
2023/06/28 03:48:45;;;;;;;3.40;2.67;;;;;;;;;;4994054;28;20474;-77
2023/06/28 03:51:11;;;;;;;7.23;2.40;;;;;;;;;;4993483;28;20443;-78
2023/06/28 03:53:36;;;;;;;16.90;2.33;;;;;;;;;;4994142;28;20419;-78
2023/06/28 03:56:02;;;;;;;4.63;2.40;;;;;;;;;;4993918;28;20209;-77
2023/06/28 03:58:28;;;;;;;5.80;1.83;;;;;;;;;;4994007;28;20186;-79
2023/06/28 04:00:54;;;;;;;5.73;2.40;;;;;;;;;;4994042;28;20751;-77
2023/06/28 04:03:20;;;;;;;13.90;2.87;;;;;;;;;;4993926;28;20173;-77
2023/06/28 04:05:46;;;;;;;6.90;2.70;;;;;;;;;;4993534;28;20444;-78
2023/06/28 04:08:12;;;;;;;8.30;2.40;;;;;;;;;;4993851;28;20420;-76
2023/06/28 04:10:38;;;;;;;7.67;3.10;;;;;;;;;;4993589;28;20475;-75
2023/06/28 04:13:04;;;;;;;5.83;2.17;;;;;;;;;;4993430;28;20453;-77
2023/06/28 04:15:30;;;;;;;8.33;3.10;;;;;;;;;;4993265;28;20435;-77
2023/06/28 04:17:56;;;;;;;4.63;2.33;;;;;;;;;;4993513;28;20482;-77
2023/06/28 04:20:22;;;;;;;5.83;2.43;;;;;;;;;;4993404;28;20545;-77
2023/06/28 04:22:48;;;;;;;6.07;2.17;;;;;;;;;;4993648;28;20260;-76
2023/06/28 04:25:14;;;;;;;3.10;1.80;;;;;;;;;;4987675;28;21046;-77
2023/06/28 04:27:40;;;;;;;3.57;2.53;;;;;;;;;;4972899;28;20759;-76
2023/06/28 04:30:06;;;;;;;6.80;2.40;;;;;;;;;;4972883;28;20772;-78
2023/06/28 04:32:32;;;;;;;6.83;2.13;;;;;;;;;;4974106;28;20638;-77
2023/06/28 04:34:59;;;;;;;3.93;2.00;;;;;;;;;;4973771;28;20415;-75
2023/06/28 04:37:31;;;;;;;7.43;2.03;;;;;;;;;;4974152;28;20478;-77
2023/06/28 04:40:00;;;;;;;6.67;1.80;;;;;;;;;;4974195;28;20418;-77
2023/06/28 04:42:29;;;;;;;5.20;1.43;;;;;;;;;;4974169;28;20423;-76
2023/06/28 04:44:59;;;;;;;7.80;1.77;;;;;;;;;;4974072;28;20445;-77
2023/06/28 04:47:26;;;;;;;7.43;1.77;;;;;;;;;;4974042;28;20771;-76
2023/06/28 04:49:52;;;;;;;5.13;1.60;;;;;;;;;;4973722;28;20414;-77
2023/06/28 04:52:27;;;;;;;6.97;1.60;;;;;;;;;;4974015;28;20428;-77
2023/06/28 04:54:53;;;;;;;3.40;1.33;;;;;;;;;;4974034;28;20737;-77
2023/06/28 04:57:22;;;;;;;5.00;2.27;;;;;;;;;;4973793;28;20485;-77
2023/06/28 04:59:48;;;;;;;8.90;2.37;;;;;;;;;;4977835;28;20175;-77
2023/06/28 05:02:14;;;;;;;6.00;2.27;;;;;;;;;;4977740;28;20850;-77
2023/06/28 05:04:41;;;;;;;3.23;1.37;;;;;;;;;;4977256;28;20442;-76
2023/06/28 05:07:07;;;;;;;3.80;1.50;;;;;;;;;;4977631;28;20419;-78
2023/06/28 05:09:34;;;;;;;6.40;2.23;;;;;;;;;;4977360;28;20458;-77
2023/06/28 05:12:00;;;;;;;5.43;1.53;;;;;;;;;;4977505;28;21016;-78
2023/06/28 05:14:26;;;;;;;9.40;2.03;;;;;;;;;;4977466;28;20417;-77
2023/06/28 05:16:53;;;;;;;6.70;1.73;;;;;;;;;;4977264;28;20466;-77
2023/06/28 05:19:19;;;;;;;6.10;2.23;;;;;;;;;;4977116;28;20797;-76
2023/06/28 05:21:45;;;;;;;2.80;0.80;;;;;;;;;;4977388;28;20410;-77
2023/06/28 05:24:11;;;;;;;5.80;1.77;;;;;;;;;;4977278;28;20423;-77
2023/06/28 05:26:37;;;;;;;4.93;1.53;;;;;;;;;;4977217;28;20626;-77
2023/06/28 05:29:03;;;;;;;4.37;1.60;;;;;;;;;;4977144;28;20913;-77
2023/06/28 05:31:29;;;;;;;6.43;1.40;;;;;;;;;;4977280;28;20182;-76
2023/06/28 05:33:54;;;;;;;4.60;1.20;;;;;;;;;;4976848;28;20412;-76
2023/06/28 05:36:22;;;;;;;3.63;1.17;;;;;;;;;;4977005;28;20210;-79
2023/06/28 05:38:47;;;;;;;4.70;1.60;;;;;;;;;;4977103;28;20178;-76
2023/06/28 05:41:14;;;;;;;4.50;1.47;;;;;;;;;;4976990;28;20894;-76
2023/06/28 05:43:42;;;;;;;4.57;1.17;;;;;;;;;;4976960;28;20430;-76
2023/06/28 05:46:08;;;;;;;4.57;1.70;;;;;;;;;;4976962;28;20414;-76
2023/06/28 05:48:34;;;;;;;4.83;0.87;;;;;;;;;;4976782;28;20418;-78
2023/06/28 05:51:00;;;;;;;9.60;1.73;;;;;;;;;;4976526;28;20173;-78
2023/06/28 05:53:26;;;;;;;4.43;0.83;;;;;;;;;;4976693;28;20230;-78
2023/06/28 05:55:52;;;;;;;3.60;0.93;;;;;;;;;;4976635;28;20596;-78
2023/06/28 05:58:18;;;;;;;3.83;1.40;;;;;;;;;;4976749;28;20509;-78
2023/06/28 06:00:44;;;;;;;2.50;0.80;;;;;;;;;;4976692;28;20407;-78
2023/06/28 06:03:10;;;;;;;3.30;1.00;;;;;;;;;;4976652;28;20447;-78
2023/06/28 06:05:37;;;;;;;7.10;1.37;;;;;;;;;;4984976;28;20928;-78
2023/06/28 06:08:03;;;;;;;3.60;1.10;;;;;;;;;;4995509;28;20407;-78
2023/06/28 06:10:30;;;;;;;3.50;0.50;;;;;;;;;;4992973;28;20900;-78
2023/06/28 06:12:56;;;;;;;2.53;1.27;;;;;;;;;;4995385;28;20490;-78
2023/06/28 06:15:25;;;;;;;3.10;0.80;;;;;;;;;;4995351;28;20506;-78
2023/06/28 06:17:51;;;;;;;7.00;1.60;;;;;;;;;;4994961;28;20529;-78
2023/06/28 06:20:17;;;;;;;5.47;1.30;;;;;;;;;;4995338;28;20410;-78
2023/06/28 06:22:44;;;;;;;3.97;1.33;;;;;;;;;;4995682;28;20454;-77
2023/06/28 06:25:10;;;;;;;4.87;0.50;;;;;;;;;;4995577;28;20449;-78
2023/06/28 06:27:36;;;;;;;5.67;1.33;;;;;;;;;;4995679;28;20447;-78
2023/06/28 06:30:06;;;;;;;15.13;1.20;;;;;;;;;;4995576;28;20184;-78
2023/06/28 06:32:32;;;;;;;5.63;0.97;;;;;;;;;;4995564;28;20859;-78
2023/06/28 06:34:58;;;;;;;4.50;0.50;;;;;;;;;;4995047;28;20423;-77
2023/06/28 06:37:24;;;;;;;2.90;0.50;;;;;;;;;;4995367;28;20470;-78
2023/06/28 06:39:50;;;;;;;3.30;0.70;;;;;;;;;;4995441;28;20827;-78
2023/06/28 06:42:16;;;;;;;5.50;0.83;;;;;;;;;;4995408;28;20425;-78
2023/06/28 06:44:42;;;;;;;2.10;0.50;;;;;;;;;;4995251;28;20176;-78
2023/06/28 06:47:08;;;;;;;2.97;0.73;;;;;;;;;;4995312;28;20413;-78
2023/06/28 06:49:34;;;;;;;3.33;0.40;;;;;;;;;;4994762;28;20594;-80
2023/06/28 06:52:00;;;;;;;2.67;0.77;;;;;;;;;;4995172;28;20469;-79
2023/06/28 06:54:29;;;;;;;2.60;0.67;;;;;;;;;;4995057;28;20178;-79
2023/06/28 06:57:05;;;;;;;5.70;0.73;;;;;;;;;;4995003;28;20979;-79
2023/06/28 06:59:33;;;;;;;4.07;0.43;;;;;;;;;;4995025;28;20421;-78
2023/06/28 07:01:59;;;;;;;7.90;0.93;;;;;;;;;;4994898;28;20407;-80
2023/06/28 07:04:25;;;;;;;3.57;0.67;;;;;;;;;;4994610;28;20970;-79
2023/06/28 07:06:52;;;;;;;2.60;0.70;;;;;;;;;;4994875;28;20178;-79
2023/06/28 07:09:18;;;;;;;3.20;0.73;;;;;;;;;;4994806;28;20560;-81
2023/06/28 07:11:44;;;;;;;3.60;0.50;;;;;;;;;;4994786;28;20413;-79
2023/06/28 07:14:10;;;;;;;2.93;0.80;;;;;;;;;;4994756;28;20781;-79
2023/06/28 07:16:36;;;;;;;2.70;0.70;;;;;;;;;;4994460;28;20472;-79
2023/06/28 07:19:03;;;;;;;5.90;0.93;;;;;;;;;;4985215;28;20522;-79
2023/06/28 07:21:29;;;;;;;2.03;0.60;;;;;;;;;;4975226;28;20430;-79
2023/06/28 07:23:55;;;;;;;2.20;0.40;;;;;;;;;;4989994;28;20801;-78
2023/06/28 07:26:21;;;;;;;3.20;0.80;;;;;;;;;;4974951;28;20424;-79
2023/06/28 07:28:47;;;;;;;3.63;0.87;;;;;;;;;;4975104;28;20414;-79
2023/06/28 07:31:13;;;;;;;4.10;1.00;;;;;;;;;;4975030;28;20458;-78
2023/06/28 07:33:42;;;;;;;2.80;0.63;;;;;;;;;;4974693;28;20276;-79
2023/06/28 07:36:08;;;;;;;3.20;0.73;;;;;;;;;;4974982;28;20416;-79
2023/06/28 07:38:34;;;;;;;5.47;0.97;;;;;;;;;;4989815;28;20469;-79
2023/06/28 07:41:00;;;;;;;2.40;0.50;;;;;;;;;;4974877;28;20602;-79
2023/06/28 07:43:26;;;;;;;3.63;0.50;;;;;;;;;;4974883;28;20447;-79
2023/06/28 07:45:53;;;;;;;4.13;0.50;;;;;;;;;;4974850;28;20192;-80
2023/06/28 07:48:19;;;;;;;2.40;0.40;;;;;;;;;;4974783;28;20464;-80
2023/06/28 07:50:47;;;;;;;4.13;1.03;;;;;;;;;;4974362;28;20430;-79
2023/06/28 07:53:12;;;;;;;2.60;0.47;;;;;;;;;;4974773;28;20420;-80
2023/06/28 07:55:38;;;;;;;2.67;0.87;;;;;;;;;;4974369;28;20831;-78
2023/06/28 07:58:04;;;;;;;2.40;0.30;;;;;;;;;;4974489;28;20475;-79
2023/06/28 08:00:31;;;;;;;3.30;0.70;;;;;;;;;;4974591;28;20508;-78
2023/06/28 08:02:57;;;;;;;2.53;0.60;;;;;;;;;;4974548;28;20624;-78
2023/06/28 08:05:23;;;;;;;2.33;0.73;;;;;;;;;;4974183;28;20475;-78
2023/06/28 08:07:49;;;;;;;3.47;0.60;;;;;;;;;;4974588;28;20901;-78
2023/06/28 08:10:15;;;;;;;1.53;0.40;;;;;;;;;;4974240;28;20558;-78
2023/06/28 08:12:41;;;;;;;3.97;1.43;;;;;;;;;;4974388;28;20959;-78
2023/06/28 08:15:07;;;;;;;4.07;0.77;;;;;;;;;;4974387;28;20432;-77
2023/06/28 08:17:33;;;;;;;6.20;0.50;;;;;;;;;;4974347;28;20295;-80
2023/06/28 08:19:59;;;;;;;2.03;0.37;;;;;;;;;;4974046;28;20927;-81
2023/06/28 08:22:25;;;;;;;1.10;0.20;;;;;;;;;;4974292;28;20271;-81
2023/06/28 08:24:51;;;;;;;3.50;0.93;;;;;;;;;;4974357;28;20180;-81
2023/06/28 08:27:17;;;;;;;2.33;0.60;;;;;;;;;;4974275;28;20693;-81
2023/06/28 08:29:42;;;;;;;3.73;0.90;;;;;;;;;;4974313;28;20172;-84
2023/06/28 08:32:09;;;;;;;4.30;1.03;;;;;;;;;;4974745;28;20238;-81
2023/06/28 08:34:35;;;;;;;5.87;1.60;;;;;;;;;;4980169;28;20172;-81
2023/06/28 08:37:03;;;;;;;6.17;1.37;;;;;;;;;;4980446;28;20471;-80
2023/06/28 08:39:29;;;;;;;1.83;0.83;;;;;;;;;;4980416;28;20415;-80
2023/06/28 08:41:55;;;;;;;3.70;1.00;;;;;;;;;;4980591;28;20416;-79
2023/06/28 08:44:23;;;;;;;4.00;1.20;;;;;;;;;;4980621;28;20172;-79
2023/06/28 08:46:49;;;;;;;3.43;0.83;;;;;;;;;;4980519;28;20447;-80
2023/06/28 08:49:15;;;;;;;4.17;0.80;;;;;;;;;;4980155;28;20416;-80
2023/06/28 08:51:44;;;;;;;3.23;0.50;;;;;;;;;;4980530;28;20436;-81
2023/06/28 08:54:11;;;;;;;4.17;1.10;;;;;;;;;;4995460;28;20852;-80
2023/06/28 08:56:38;;;;;;;2.70;0.50;;;;;;;;;;4980424;28;20459;-80
2023/06/28 08:59:04;;;;;;;4.03;0.60;;;;;;;;;;4980444;28;20447;-80
2023/06/28 09:01:31;;;;;;;4.23;0.90;;;;;;;;;;4980387;28;20940;-80
2023/06/28 09:03:57;;;;;;;3.70;0.93;;;;;;;;;;4979968;28;20423;-79
2023/06/28 09:06:23;;;;;;;5.90;1.50;;;;;;;;;;4980347;28;20423;-78
2023/06/28 09:08:51;;;;;;;3.13;1.20;;;;;;;;;;4980182;28;20533;-76
2023/06/28 09:11:17;;;;;;;4.57;1.67;;;;;;;;;;4980426;28;20447;-76
2023/06/28 09:13:43;;;;;;;3.63;0.90;;;;;;;;;;4980178;28;20959;-78
2023/06/28 09:16:10;;;;;;;5.70;1.33;;;;;;;;;;4980252;28;20565;-79
2023/06/28 09:18:36;;;;;;;3.07;0.93;;;;;;;;;;4979889;28;20427;-79
2023/06/28 09:21:02;;;;;;;3.90;1.50;;;;;;;;;;4980156;28;20412;-79
2023/06/28 09:23:29;;;;;;;2.33;0.80;;;;;;;;;;4980188;28;20418;-81
2023/06/28 09:25:55;;;;;;;7.00;1.17;;;;;;;;;;4980111;28;20441;-79
2023/06/28 09:28:24;;;;;;;5.40;1.20;;;;;;;;;;4980276;28;20559;-80
2023/06/28 09:30:54;;;;;;;4.20;0.90;;;;;;;;;;4980170;28;20427;-80
2023/06/28 09:33:20;;;;;;;2.97;1.03;;;;;;;;;;4979808;28;20598;-77
2023/06/28 09:35:46;;;;;;;3.77;1.00;;;;;;;;;;4980171;28;20867;-76
2023/06/28 09:38:12;;;;;;;2.03;0.67;;;;;;;;;;4980027;28;20482;-77
2023/06/28 09:40:38;;;;;;;3.00;0.87;;;;;;;;;;4980046;28;20251;-77
2023/06/28 09:43:04;;;;;;;4.80;0.90;;;;;;;;;;4980150;28;20427;-78
2023/06/28 09:45:31;;;;;;;4.63;0.90;;;;;;;;;;4976173;28;20625;-77
2023/06/28 09:47:58;;;;;;;2.37;0.80;;;;;;;;;;4976975;28;20482;-78
2023/06/28 09:50:46;;;;;;;3.33;0.90;;;;;;;;;;4976568;28;20420;-78
2023/06/28 09:53:31;;;;;;;6.40;1.93;;;;;;;;;;4975442;28;20873;-78
2023/06/28 09:55:57;;;;;;;3.33;1.27;;;;;;;;;;4976820;28;20506;-77
2023/06/28 09:58:26;;;;;;;2.03;0.80;;;;;;;;;;4976569;28;20917;-78
2023/06/28 10:00:52;;;;;;;3.20;1.20;;;;;;;;;;4976795;28;20416;-79
2023/06/28 10:03:20;;;;;;;5.10;1.40;;;;;;;;;;4976396;28;20420;-77
2023/06/28 10:05:46;;;;;;;2.93;1.30;;;;;;;;;;4976657;28;20458;-77
2023/06/28 10:08:13;;;;;;;1.90;0.67;;;;;;;;;;4976569;28;20419;-78
2023/06/28 10:10:40;;;;;;;3.13;0.83;;;;;;;;;;4976360;28;20490;-77
2023/06/28 10:13:21;;;;;;;3.23;0.90;;;;;;;;;;4976475;28;20431;-77
2023/06/28 10:16:01;;;;;;;6.33;1.47;;;;;;;;;;4976486;28;20749;-77
2023/06/28 10:18:27;;;;;;;3.00;0.87;;;;;;;;;;4976076;28;20992;-77
2023/06/28 10:20:53;;;;;;;6.77;1.63;;;;;;;;;;4976301;28;20404;-77
2023/06/28 10:23:20;;;;;;;3.53;1.40;;;;;;;;;;4976288;28;20451;-78
2023/06/28 10:25:46;;;;;;;3.57;1.50;;;;;;;;;;4976285;28;20431;-77
2023/06/28 10:28:13;;;;;;;5.93;1.00;;;;;;;;;;4976261;28;20515;-77
2023/06/28 10:30:40;;;;;;;3.90;1.00;;;;;;;;;;4976259;28;20443;-77
2023/06/28 10:33:06;;;;;;;4.20;1.30;;;;;;;;;;4975855;28;20415;-78
2023/06/28 10:35:32;;;;;;;3.73;1.07;;;;;;;;;;4976168;28;20444;-78
2023/06/28 10:37:58;;;;;;;2.67;0.83;;;;;;;;;;4976008;28;20467;-77
2023/06/28 10:40:25;;;;;;;6.00;1.30;;;;;;;;;;4976102;28;20412;-78
2023/06/28 10:42:51;;;;;;;5.70;1.53;;;;;;;;;;4975984;28;20502;-77
2023/06/28 10:45:17;;;;;;;2.40;0.50;;;;;;;;;;4976043;28;20415;-78
2023/06/28 10:47:55;;;;;;;3.07;1.30;;;;;;;;;;4975942;28;20415;-76
2023/06/28 10:50:22;;;;;;;3.97;0.90;;;;;;;;;;4975824;28;20411;-77
2023/06/28 10:52:49;;;;;;;2.70;1.00;;;;;;;;;;4975733;28;20423;-78
2023/06/28 10:55:21;;;;;;;3.70;1.23;;;;;;;;;;4975238;28;20491;-77
2023/06/28 10:58:03;;;;;;;6.20;1.27;;;;;;;;;;4975261;28;20514;-78
2023/06/28 11:00:39;;;;;;;4.77;1.03;;;;;;;;;;4975753;28;20426;-77
2023/06/28 11:03:05;;;;;;;3.87;1.40;;;;;;;;;;4975282;28;20431;-77
2023/06/28 11:05:52;;;;;;;5.83;1.17;;;;;;;;;;4975556;28;20799;-78
2023/06/28 11:08:18;;;;;;;2.40;1.37;;;;;;;;;;4975544;28;20819;-78
2023/06/28 11:10:45;;;;;;;3.93;1.63;;;;;;;;;;4975332;28;20502;-78
2023/06/28 11:13:15;;;;;;;3.97;1.70;;;;;;;;;;4975446;28;20833;-79
2023/06/28 11:15:47;;;;;;;5.80;1.60;;;;;;;;;;4975387;28;20407;-78
2023/06/28 11:18:18;;;;;;;4.10;1.40;;;;;;;;;;4974901;28;20471;-79
2023/06/28 11:20:46;;;;;;;2.63;0.87;;;;;;;;;;4975337;28;20424;-79
2023/06/28 11:23:22;;;;;;;3.30;1.17;;;;;;;;;;4975268;28;20511;-78
2023/06/28 11:25:48;;;;;;;2.40;0.80;;;;;;;;;;4975157;28;20470;-78
2023/06/28 11:28:14;;;;;;;2.53;0.70;;;;;;;;;;4975168;28;20411;-77
2023/06/28 11:30:47;;;;;;;1.40;0.50;;;;;;;;;;4975178;28;20233;-79
2023/06/28 11:33:13;;;;;;;2.73;0.73;;;;;;;;;;4975979;28;20199;-77
2023/06/28 11:35:40;;;;;;;3.60;1.33;;;;;;;;;;4987089;28;20446;-78
2023/06/28 11:38:07;;;;;;;2.67;0.50;;;;;;;;;;4979030;28;20479;-78
2023/06/28 11:40:33;;;;;;;2.50;0.63;;;;;;;;;;4974591;28;20465;-78
2023/06/28 11:42:59;;;;;;;5.10;0.80;;;;;;;;;;4974460;28;20416;-79
2023/06/28 11:45:24;;;;;;;2.73;0.83;;;;;;;;;;4974442;28;20884;-79
2023/06/28 11:47:50;;;;;;;2.87;1.07;;;;;;;;;;4974148;28;20177;-78
2023/06/28 11:50:16;;;;;;;2.53;0.70;;;;;;;;;;4988510;28;20427;-79
2023/06/28 11:52:50;;;;;;;3.90;0.73;;;;;;;;;;4974111;28;20667;-79
2023/06/28 11:55:16;;;;;;;3.73;1.10;;;;;;;;;;4974346;28;20407;-79
2023/06/28 11:57:45;;;;;;;3.53;0.80;;;;;;;;;;4974225;28;20487;-79
2023/06/28 12:00:15;;;;;;;2.93;0.80;;;;;;;;;;4974348;28;20507;-78
2023/06/28 12:02:51;;;;;;;2.80;0.60;;;;;;;;;;4973726;28;21105;-78
2023/06/28 12:05:18;;;;;;;2.23;0.50;;;;;;;;;;4980388;28;20923;-77
2023/06/28 12:07:48;;;;;;;4.60;1.10;;;;;;;;;;4992951;28;20795;-78
2023/06/28 12:10:16;;;;;;;3.43;0.63;;;;;;;;;;4993281;28;20554;-78
2023/06/28 12:12:42;;;;;;;3.10;0.77;;;;;;;;;;4993402;28;20429;-77
2023/06/28 12:15:14;;;;;;;4.47;0.50;;;;;;;;;;5005431;28;20537;-77
2023/06/28 12:17:44;;;;;;;3.13;1.23;;;;;;;;;;5012664;28;20505;-78
2023/06/28 12:20:11;;;;;;;1.47;0.50;;;;;;;;;;5012957;28;20775;-78
2023/06/28 12:22:42;;;;;;;3.73;0.80;;;;;;;;;;5012971;28;20791;-78
2023/06/28 12:25:09;;;;;;;1.40;0.43;;;;;;;;;;4997396;28;20411;-78
2023/06/28 12:27:35;;;;;;;1.30;0.50;;;;;;;;;;4993277;28;20411;-78
2023/06/28 12:30:07;;;;;;;3.47;0.83;;;;;;;;;;4993234;28;20920;-78
2023/06/28 12:32:39;;;;;;;1.67;0.60;;;;;;;;;;4992815;28;20419;-78
2023/06/28 12:35:05;;;;;;;2.10;0.77;;;;;;;;;;4993172;28;20485;-77
2023/06/28 12:37:35;;;;;;;2.30;1.27;;;;;;;;;;4993075;28;20509;-78
2023/06/28 12:40:08;;;;;;;1.87;0.53;;;;;;;;;;4993156;28;20411;-78
2023/06/28 12:42:34;;;;;;;2.07;0.70;;;;;;;;;;4993040;28;20418;-78
2023/06/28 12:45:00;;;;;;;2.00;0.40;;;;;;;;;;5009899;28;20414;-78
2023/06/28 12:47:27;;;;;;;2.40;0.60;;;;;;;;;;5012768;28;20232;-78
2023/06/28 12:49:53;;;;;;;1.10;0.33;;;;;;;;;;5011916;28;20520;-78
2023/06/28 12:52:20;;;;;;;3.17;0.73;;;;;;;;;;5012315;28;20414;-78
2023/06/28 12:54:46;;;;;;;2.37;0.53;;;;;;;;;;5012334;28;20406;-78
2023/06/28 12:57:12;;;;;;;3.90;0.70;;;;;;;;;;4999387;28;20482;-78
2023/06/28 12:59:39;;;;;;;4.77;0.80;;;;;;;;;;4992155;28;20180;-77
2023/06/28 13:02:05;;;;;;;4.10;1.03;;;;;;;;;;4991726;28;20419;-78
2023/06/28 13:04:33;;;;;;;2.40;0.77;;;;;;;;;;5006092;28;20473;-78
2023/06/28 13:06:59;;;;;;;1.23;0.47;;;;;;;;;;4991261;28;20842;-78
2023/06/28 13:09:25;;;;;;;1.10;0.50;;;;;;;;;;4991643;28;20455;-77
2023/06/28 13:11:51;;;;;;;2.20;0.60;;;;;;;;;;4991900;28;20423;-77
2023/06/28 13:14:17;;;;;;;1.80;0.70;;;;;;;;;;4991776;28;20423;-77
2023/06/28 13:16:43;;;;;;;1.67;0.33;;;;;;;;;;4991837;28;20214;-78
2023/06/28 13:19:09;;;;;;;3.93;1.13;;;;;;;;;;4992634;28;20646;-78
2023/06/28 13:21:35;;;;;;;7.33;1.13;;;;;;;;;;4995212;28;20418;-78
2023/06/28 13:24:01;;;;;;;1.60;0.53;;;;;;;;;;4995234;28;20421;-78
2023/06/28 13:26:27;;;;;;;2.63;0.80;;;;;;;;;;4994878;28;20186;-78
2023/06/28 13:28:53;;;;;;;1.73;0.40;;;;;;;;;;4993452;28;20299;-78
2023/06/28 13:31:19;;;;;;;1.73;0.63;;;;;;;;;;4995254;28;20270;-80
2023/06/28 13:33:44;;;;;;;1.27;0.43;;;;;;;;;;4985043;28;20189;-83
2023/06/28 13:36:11;;;;;;;2.83;0.60;;;;;;;;;;4991696;28;20597;-80
2023/06/28 13:38:37;;;;;;;4.77;0.90;;;;;;;;;;4993948;28;20207;-81
2023/06/28 13:41:02;;;;;;;3.20;0.77;;;;;;;;;;4994263;28;20451;-79
2023/06/28 13:43:28;;;;;;;1.20;0.60;;;;;;;;;;4995539;28;20191;-76
2023/06/28 13:45:54;;;;;;;3.63;1.57;;;;;;;;;;4996049;28;20179;-75
2023/06/28 13:48:20;;;;;;;0.80;0.30;;;;;;;;;;4994332;28;20175;-75
2023/06/28 13:50:46;;;;;;;1.67;0.40;;;;;;;;;;4994212;28;20415;-74
2023/06/28 13:53:12;;;;;;;1.07;0.57;;;;;;;;;;4995588;28;20417;-73
2023/06/28 13:55:38;;;;;;;1.37;0.20;;;;;;;;;;4995132;28;20434;-75
2023/06/28 13:58:04;;;;;;;1.10;0.40;;;;;;;;;;4995324;28;20246;-76
2023/06/28 14:00:30;;;;;;;2.20;0.67;;;;;;;;;;4995987;28;20176;-77
2023/06/28 14:02:56;;;;;;;1.33;0.70;;;;;;;;;;4995069;28;20180;-77
2023/06/28 14:05:25;;;;;;;2.30;0.50;;;;;;;;;;4994721;28;20926;-77
2023/06/28 14:07:51;;;;;;;1.30;0.60;;;;;;;;;;4996002;28;20266;-77
2023/06/28 14:10:17;;;;;;;3.23;0.50;;;;;;;;;;4995776;28;20486;-77
2023/06/28 14:12:43;;;;;;;3.23;0.53;;;;;;;;;;4995952;28;20510;-76
2023/06/28 14:15:10;;;;;;;2.37;0.87;;;;;;;;;;4993983;28;20191;-76
2023/06/28 14:17:41;;;;;;;1.93;0.50;;;;;;;;;;4995273;28;20483;-77
2023/06/28 14:20:08;;;;;;;2.33;0.87;;;;;;;;;;4995605;28;20482;-76
2023/06/28 14:22:37;;;;;;;0.93;0.40;;;;;;;;;;4995679;28;20407;-77
2023/06/28 14:25:07;;;;;;;1.70;0.73;;;;;;;;;;4995530;28;20501;-76
2023/06/28 14:27:33;;;;;;;2.20;0.73;;;;;;;;;;4995467;28;20450;-77
2023/06/28 14:29:59;;;;;;;3.03;0.47;;;;;;;;;;4995337;28;20447;-77
2023/06/28 14:32:25;;;;;;;2.70;0.70;;;;;;;;;;5010801;28;20433;-77
2023/06/28 14:34:51;;;;;;;3.53;0.80;;;;;;;;;;5000143;28;20190;-76
2023/06/28 14:37:17;;;;;;;0.93;0.30;;;;;;;;;;4995230;28;20215;-76
2023/06/28 14:39:43;;;;;;;1.40;0.40;;;;;;;;;;4995280;28;20699;-77
2023/06/28 14:42:09;;;;;;;2.90;0.53;;;;;;;;;;4995043;28;20512;-77